sensor_id;sensor_type;location;lat;lon;timestamp;temperature;humidity
28374;DHT22;15616;40.148;-102.718;2023-04-01T00:00:06;20.50;52.80
28374;DHT22;15616;40.148;-102.718;2023-04-01T00:02:32;20.40;52.80
28374;DHT22;15616;40.148;-102.718;2023-04-01T00:04:57;20.40;52.80
28374;DHT22;15616;40.148;-102.718;2023-04-01T00:07:23;20.40;52.80
28374;DHT22;15616;40.148;-102.718;2023-04-01T00:09:49;20.40;52.90
28374;DHT22;15616;40.148;-102.718;2023-04-01T00:12:14;20.40;52.80
28374;DHT22;15616;40.148;-102.718;2023-04-01T00:14:40;20.40;52.90
28374;DHT22;15616;40.148;-102.718;2023-04-01T00:17:06;20.40;52.90
28374;DHT22;15616;40.148;-102.718;2023-04-01T00:19:32;20.40;52.90
28374;DHT22;15616;40.148;-102.718;2023-04-01T00:21:58;20.40;52.90
28374;DHT22;15616;40.148;-102.718;2023-04-01T00:24:23;20.40;52.90
28374;DHT22;15616;40.148;-102.718;2023-04-01T00:26:49;20.40;52.90
28374;DHT22;15616;40.148;-102.718;2023-04-01T00:29:15;20.40;52.90
28374;DHT22;15616;40.148;-102.718;2023-04-01T00:31:41;20.40;52.90
28374;DHT22;15616;40.148;-102.718;2023-04-01T00:34:06;20.40;53.00
28374;DHT22;15616;40.148;-102.718;2023-04-01T00:36:32;20.40;53.00
28374;DHT22;15616;40.148;-102.718;2023-04-01T00:38:58;20.40;53.00
28374;DHT22;15616;40.148;-102.718;2023-04-01T00:41:27;20.40;53.60
28374;DHT22;15616;40.148;-102.718;2023-04-01T00:44:11;20.40;53.00
28374;DHT22;15616;40.148;-102.718;2023-04-01T00:46:39;20.40;53.00
28374;DHT22;15616;40.148;-102.718;2023-04-01T00:49:04;20.40;52.90
28374;DHT22;15616;40.148;-102.718;2023-04-01T00:51:30;20.40;53.00
28374;DHT22;15616;40.148;-102.718;2023-04-01T00:53:57;20.40;52.90
28374;DHT22;15616;40.148;-102.718;2023-04-01T00:56:31;20.40;53.00
28374;DHT22;15616;40.148;-102.718;2023-04-01T00:59:00;20.40;53.00
28374;DHT22;15616;40.148;-102.718;2023-04-01T01:01:27;20.30;52.90
28374;DHT22;15616;40.148;-102.718;2023-04-01T01:03:53;20.30;53.00
28374;DHT22;15616;40.148;-102.718;2023-04-01T01:06:28;20.40;53.00
28374;DHT22;15616;40.148;-102.718;2023-04-01T01:09:03;20.30;53.00
28374;DHT22;15616;40.148;-102.718;2023-04-01T01:14:24;20.30;53.00
28374;DHT22;15616;40.148;-102.718;2023-04-01T01:16:54;20.30;53.00
28374;DHT22;15616;40.148;-102.718;2023-04-01T01:27:08;20.30;53.10
28374;DHT22;15616;40.148;-102.718;2023-04-01T01:37:18;20.30;53.20
28374;DHT22;15616;40.148;-102.718;2023-04-01T01:39:47;20.30;53.20
28374;DHT22;15616;40.148;-102.718;2023-04-01T01:42:15;20.30;53.20
28374;DHT22;15616;40.148;-102.718;2023-04-01T01:44:42;20.30;53.20
28374;DHT22;15616;40.148;-102.718;2023-04-01T01:47:09;20.30;53.20
28374;DHT22;15616;40.148;-102.718;2023-04-01T01:49:35;20.30;53.20
28374;DHT22;15616;40.148;-102.718;2023-04-01T01:52:02;20.30;53.20
28374;DHT22;15616;40.148;-102.718;2023-04-01T01:54:29;20.30;53.20
28374;DHT22;15616;40.148;-102.718;2023-04-01T01:57:03;20.30;53.30
28374;DHT22;15616;40.148;-102.718;2023-04-01T01:59:30;20.30;53.30
28374;DHT22;15616;40.148;-102.718;2023-04-01T02:01:57;20.30;53.30
28374;DHT22;15616;40.148;-102.718;2023-04-01T02:04:24;20.30;53.20
28374;DHT22;15616;40.148;-102.718;2023-04-01T02:06:58;20.30;53.20
28374;DHT22;15616;40.148;-102.718;2023-04-01T02:09:26;20.30;53.20
28374;DHT22;15616;40.148;-102.718;2023-04-01T02:11:52;20.30;53.20
28374;DHT22;15616;40.148;-102.718;2023-04-01T02:17:07;20.30;53.30
28374;DHT22;15616;40.148;-102.718;2023-04-01T02:19:36;20.30;53.30
28374;DHT22;15616;40.148;-102.718;2023-04-01T02:22:04;20.20;53.30
28374;DHT22;15616;40.148;-102.718;2023-04-01T02:24:31;20.30;53.40
28374;DHT22;15616;40.148;-102.718;2023-04-01T02:26:58;20.30;53.30
28374;DHT22;15616;40.148;-102.718;2023-04-01T02:29:24;20.30;53.30
28374;DHT22;15616;40.148;-102.718;2023-04-01T02:31:53;20.30;53.30
28374;DHT22;15616;40.148;-102.718;2023-04-01T02:34:20;20.30;53.40
28374;DHT22;15616;40.148;-102.718;2023-04-01T02:36:47;20.30;53.40
28374;DHT22;15616;40.148;-102.718;2023-04-01T02:39:13;20.30;53.40
28374;DHT22;15616;40.148;-102.718;2023-04-01T02:41:40;20.30;53.40
28374;DHT22;15616;40.148;-102.718;2023-04-01T02:44:06;20.20;53.30
28374;DHT22;15616;40.148;-102.718;2023-04-01T02:46:32;20.20;53.30
28374;DHT22;15616;40.148;-102.718;2023-04-01T02:48:58;20.30;53.40
28374;DHT22;15616;40.148;-102.718;2023-04-01T02:51:25;20.30;53.30
28374;DHT22;15616;40.148;-102.718;2023-04-01T02:53:50;20.30;53.40
28374;DHT22;15616;40.148;-102.718;2023-04-01T02:56:16;20.30;53.40
28374;DHT22;15616;40.148;-102.718;2023-04-01T02:58:42;20.30;53.40
28374;DHT22;15616;40.148;-102.718;2023-04-01T03:01:08;20.30;53.30
28374;DHT22;15616;40.148;-102.718;2023-04-01T03:03:34;20.30;53.30
28374;DHT22;15616;40.148;-102.718;2023-04-01T03:06:10;20.30;53.30
28374;DHT22;15616;40.148;-102.718;2023-04-01T03:08:36;20.30;53.40
28374;DHT22;15616;40.148;-102.718;2023-04-01T03:11:01;20.20;53.30
28374;DHT22;15616;40.148;-102.718;2023-04-01T03:13:27;20.30;53.40
28374;DHT22;15616;40.148;-102.718;2023-04-01T03:15:53;20.30;53.40
28374;DHT22;15616;40.148;-102.718;2023-04-01T03:18:19;20.20;53.30
28374;DHT22;15616;40.148;-102.718;2023-04-01T03:20:45;20.30;53.40
28374;DHT22;15616;40.148;-102.718;2023-04-01T03:23:11;20.30;53.40
28374;DHT22;15616;40.148;-102.718;2023-04-01T03:25:37;20.30;53.40
28374;DHT22;15616;40.148;-102.718;2023-04-01T03:28:03;20.30;53.40
28374;DHT22;15616;40.148;-102.718;2023-04-01T03:30:28;20.30;53.40
28374;DHT22;15616;40.148;-102.718;2023-04-01T03:32:59;20.30;53.40
28374;DHT22;15616;40.148;-102.718;2023-04-01T03:35:26;20.20;53.40
28374;DHT22;15616;40.148;-102.718;2023-04-01T03:37:52;20.30;53.40
28374;DHT22;15616;40.148;-102.718;2023-04-01T03:40:18;20.30;53.40
28374;DHT22;15616;40.148;-102.718;2023-04-01T03:42:44;20.30;53.30
28374;DHT22;15616;40.148;-102.718;2023-04-01T03:45:10;20.30;53.30
28374;DHT22;15616;40.148;-102.718;2023-04-01T03:47:37;20.30;53.30
28374;DHT22;15616;40.148;-102.718;2023-04-01T03:50:03;20.30;53.40
28374;DHT22;15616;40.148;-102.718;2023-04-01T03:52:29;20.30;53.30
28374;DHT22;15616;40.148;-102.718;2023-04-01T03:54:55;20.30;53.30
28374;DHT22;15616;40.148;-102.718;2023-04-01T03:57:22;20.30;53.30
28374;DHT22;15616;40.148;-102.718;2023-04-01T03:59:47;20.30;53.30
28374;DHT22;15616;40.148;-102.718;2023-04-01T04:02:13;20.30;53.30
28374;DHT22;15616;40.148;-102.718;2023-04-01T04:04:39;20.30;53.30
28374;DHT22;15616;40.148;-102.718;2023-04-01T04:07:05;20.30;53.30
28374;DHT22;15616;40.148;-102.718;2023-04-01T04:09:31;20.30;53.30
28374;DHT22;15616;40.148;-102.718;2023-04-01T04:11:56;20.30;53.30
28374;DHT22;15616;40.148;-102.718;2023-04-01T04:14:23;20.30;53.30
28374;DHT22;15616;40.148;-102.718;2023-04-01T04:16:48;20.30;53.30
28374;DHT22;15616;40.148;-102.718;2023-04-01T04:19:14;20.30;53.30
28374;DHT22;15616;40.148;-102.718;2023-04-01T04:21:41;20.30;53.30
28374;DHT22;15616;40.148;-102.718;2023-04-01T04:24:07;20.30;53.30
28374;DHT22;15616;40.148;-102.718;2023-04-01T04:26:33;20.30;53.30
28374;DHT22;15616;40.148;-102.718;2023-04-01T04:28:59;20.30;53.20
28374;DHT22;15616;40.148;-102.718;2023-04-01T04:31:25;20.30;53.30
28374;DHT22;15616;40.148;-102.718;2023-04-01T04:33:51;20.30;53.30
28374;DHT22;15616;40.148;-102.718;2023-04-01T04:36:17;20.30;53.30
28374;DHT22;15616;40.148;-102.718;2023-04-01T04:38:43;20.30;53.30
28374;DHT22;15616;40.148;-102.718;2023-04-01T04:41:10;20.30;53.30
28374;DHT22;15616;40.148;-102.718;2023-04-01T04:43:37;20.30;53.20
28374;DHT22;15616;40.148;-102.718;2023-04-01T04:46:06;20.30;53.20
28374;DHT22;15616;40.148;-102.718;2023-04-01T04:48:32;20.30;53.20
28374;DHT22;15616;40.148;-102.718;2023-04-01T04:50:58;20.30;53.20
28374;DHT22;15616;40.148;-102.718;2023-04-01T04:53:24;20.30;53.20
28374;DHT22;15616;40.148;-102.718;2023-04-01T04:55:50;20.30;53.10
28374;DHT22;15616;40.148;-102.718;2023-04-01T04:58:16;20.30;53.20
28374;DHT22;15616;40.148;-102.718;2023-04-01T05:00:42;20.30;53.20
28374;DHT22;15616;40.148;-102.718;2023-04-01T05:03:08;20.30;53.20
28374;DHT22;15616;40.148;-102.718;2023-04-01T05:05:35;20.30;53.20
28374;DHT22;15616;40.148;-102.718;2023-04-01T05:08:01;20.30;53.20
28374;DHT22;15616;40.148;-102.718;2023-04-01T05:10:27;20.20;53.20
28374;DHT22;15616;40.148;-102.718;2023-04-01T05:12:52;20.30;53.20
28374;DHT22;15616;40.148;-102.718;2023-04-01T05:15:18;20.30;53.20
28374;DHT22;15616;40.148;-102.718;2023-04-01T05:17:44;20.30;53.20
28374;DHT22;15616;40.148;-102.718;2023-04-01T05:20:11;20.30;53.20
28374;DHT22;15616;40.148;-102.718;2023-04-01T05:22:37;20.30;53.30
28374;DHT22;15616;40.148;-102.718;2023-04-01T05:25:03;20.30;53.20
28374;DHT22;15616;40.148;-102.718;2023-04-01T05:27:29;20.30;53.20
28374;DHT22;15616;40.148;-102.718;2023-04-01T05:29:55;20.30;53.20
28374;DHT22;15616;40.148;-102.718;2023-04-01T05:32:21;20.30;53.20
28374;DHT22;15616;40.148;-102.718;2023-04-01T05:34:49;20.30;53.20
28374;DHT22;15616;40.148;-102.718;2023-04-01T05:37:15;20.30;53.30
28374;DHT22;15616;40.148;-102.718;2023-04-01T05:39:41;20.30;53.30
28374;DHT22;15616;40.148;-102.718;2023-04-01T05:42:07;20.30;54.00
28374;DHT22;15616;40.148;-102.718;2023-04-01T05:44:33;20.30;53.30
28374;DHT22;15616;40.148;-102.718;2023-04-01T05:46:59;20.30;53.20
28374;DHT22;15616;40.148;-102.718;2023-04-01T05:49:25;20.30;53.20
28374;DHT22;15616;40.148;-102.718;2023-04-01T05:51:51;20.30;53.20
28374;DHT22;15616;40.148;-102.718;2023-04-01T05:54:16;20.30;53.30
28374;DHT22;15616;40.148;-102.718;2023-04-01T05:56:42;20.30;53.20
28374;DHT22;15616;40.148;-102.718;2023-04-01T05:59:11;20.30;53.20
28374;DHT22;15616;40.148;-102.718;2023-04-01T06:01:36;20.30;53.20
28374;DHT22;15616;40.148;-102.718;2023-04-01T06:04:02;20.30;53.20
28374;DHT22;15616;40.148;-102.718;2023-04-01T06:06:29;20.30;53.20
28374;DHT22;15616;40.148;-102.718;2023-04-01T06:08:56;20.30;53.20
28374;DHT22;15616;40.148;-102.718;2023-04-01T06:11:27;20.30;53.20
28374;DHT22;15616;40.148;-102.718;2023-04-01T06:13:59;20.30;53.20
28374;DHT22;15616;40.148;-102.718;2023-04-01T06:19:20;20.30;53.10
28374;DHT22;15616;40.148;-102.718;2023-04-01T06:32:28;20.30;53.10
28374;DHT22;15616;40.148;-102.718;2023-04-01T06:40:17;20.30;53.10
28374;DHT22;15616;40.148;-102.718;2023-04-01T06:48:02;20.30;53.10
28374;DHT22;15616;40.148;-102.718;2023-04-01T06:50:32;20.30;53.10
28374;DHT22;15616;40.148;-102.718;2023-04-01T06:53:12;20.30;53.10
28374;DHT22;15616;40.148;-102.718;2023-04-01T06:58:25;20.30;53.10
28374;DHT22;15616;40.148;-102.718;2023-04-01T07:00:52;20.30;53.10
28374;DHT22;15616;40.148;-102.718;2023-04-01T07:05:51;20.30;53.10
28374;DHT22;15616;40.148;-102.718;2023-04-01T07:08:20;20.30;53.10
28374;DHT22;15616;40.148;-102.718;2023-04-01T07:13:15;20.30;53.10
28374;DHT22;15616;40.148;-102.718;2023-04-01T07:15:45;20.30;53.10
28374;DHT22;15616;40.148;-102.718;2023-04-01T07:18:16;20.30;53.00
28374;DHT22;15616;40.148;-102.718;2023-04-01T07:20:43;20.30;53.10
28374;DHT22;15616;40.148;-102.718;2023-04-01T07:23:23;20.30;53.00
28374;DHT22;15616;40.148;-102.718;2023-04-01T07:25:51;20.30;53.00
28374;DHT22;15616;40.148;-102.718;2023-04-01T07:28:18;20.30;53.00
28374;DHT22;15616;40.148;-102.718;2023-04-01T07:30:50;20.30;53.10
28374;DHT22;15616;40.148;-102.718;2023-04-01T07:36:03;20.30;53.10
28374;DHT22;15616;40.148;-102.718;2023-04-01T07:43:44;20.30;53.10
28374;DHT22;15616;40.148;-102.718;2023-04-01T07:46:23;20.30;53.10
28374;DHT22;15616;40.148;-102.718;2023-04-01T07:51:24;20.30;53.00
28374;DHT22;15616;40.148;-102.718;2023-04-01T07:56:22;20.30;53.10
28374;DHT22;15616;40.148;-102.718;2023-04-01T08:06:30;20.30;53.10
28374;DHT22;15616;40.148;-102.718;2023-04-01T08:09:02;20.30;53.10
28374;DHT22;15616;40.148;-102.718;2023-04-01T08:11:44;20.30;53.10
28374;DHT22;15616;40.148;-102.718;2023-04-01T08:16:46;20.30;53.10
28374;DHT22;15616;40.148;-102.718;2023-04-01T08:19:15;20.30;53.10
28374;DHT22;15616;40.148;-102.718;2023-04-01T08:21:47;20.30;53.10
28374;DHT22;15616;40.148;-102.718;2023-04-01T08:26:59;20.30;53.10
28374;DHT22;15616;40.148;-102.718;2023-04-01T08:29:30;20.30;53.10
28374;DHT22;15616;40.148;-102.718;2023-04-01T08:32:00;20.30;53.10
28374;DHT22;15616;40.148;-102.718;2023-04-01T08:34:52;20.30;53.10
28374;DHT22;15616;40.148;-102.718;2023-04-01T08:37:23;20.30;53.10
28374;DHT22;15616;40.148;-102.718;2023-04-01T08:39:53;20.30;53.80
28374;DHT22;15616;40.148;-102.718;2023-04-01T08:50:12;20.30;53.10
28374;DHT22;15616;40.148;-102.718;2023-04-01T08:52:52;20.30;53.10
28374;DHT22;15616;40.148;-102.718;2023-04-01T08:55:25;20.30;53.10
28374;DHT22;15616;40.148;-102.718;2023-04-01T09:02:54;20.30;53.20
28374;DHT22;15616;40.148;-102.718;2023-04-01T09:13:05;20.30;53.30
28374;DHT22;15616;40.148;-102.718;2023-04-01T09:18:26;20.30;53.30
28374;DHT22;15616;40.148;-102.718;2023-04-01T09:31:20;20.30;53.30
28374;DHT22;15616;40.148;-102.718;2023-04-01T09:37:02;20.30;53.30
28374;DHT22;15616;40.148;-102.718;2023-04-01T09:38:59;20.30;53.30
28374;DHT22;15616;40.148;-102.718;2023-04-01T09:41:32;20.30;53.30
28374;DHT22;15616;40.148;-102.718;2023-04-01T09:44:03;20.30;53.30
28374;DHT22;15616;40.148;-102.718;2023-04-01T09:49:19;20.30;53.30
28374;DHT22;15616;40.148;-102.718;2023-04-01T09:54:27;20.30;53.30
28374;DHT22;15616;40.148;-102.718;2023-04-01T09:57:19;20.30;53.30
28374;DHT22;15616;40.148;-102.718;2023-04-01T10:17:38;20.30;53.40
28374;DHT22;15616;40.148;-102.718;2023-04-01T10:36:34;20.30;53.30
28374;DHT22;15616;40.148;-102.718;2023-04-01T10:49:01;20.30;53.30
28374;DHT22;15616;40.148;-102.718;2023-04-01T10:56:50;20.30;53.30
28374;DHT22;15616;40.148;-102.718;2023-04-01T11:07:36;20.30;53.40
28374;DHT22;15616;40.148;-102.718;2023-04-01T11:15:21;20.30;53.40
28374;DHT22;15616;40.148;-102.718;2023-04-01T11:20:40;20.30;53.40
28374;DHT22;15616;40.148;-102.718;2023-04-01T11:23:14;20.30;53.40
28374;DHT22;15616;40.148;-102.718;2023-04-01T11:26:02;20.30;53.40
28374;DHT22;15616;40.148;-102.718;2023-04-01T11:28:35;20.30;53.40
28374;DHT22;15616;40.148;-102.718;2023-04-01T11:36:15;20.30;53.40
28374;DHT22;15616;40.148;-102.718;2023-04-01T11:46:39;20.30;53.40
28374;DHT22;15616;40.148;-102.718;2023-04-01T11:56:49;20.30;53.40
28374;DHT22;15616;40.148;-102.718;2023-04-01T12:04:41;20.30;53.40
28374;DHT22;15616;40.148;-102.718;2023-04-01T12:10:51;20.30;53.40
28374;DHT22;15616;40.148;-102.718;2023-04-01T12:18:12;20.30;53.40
28374;DHT22;15616;40.148;-102.718;2023-04-01T12:20:43;20.30;53.40
28374;DHT22;15616;40.148;-102.718;2023-04-01T12:23:28;20.30;53.40
28374;DHT22;15616;40.148;-102.718;2023-04-01T12:28:25;20.30;53.40
28374;DHT22;15616;40.148;-102.718;2023-04-01T12:31:02;20.30;53.40
28374;DHT22;15616;40.148;-102.718;2023-04-01T12:39:13;20.40;53.50
28374;DHT22;15616;40.148;-102.718;2023-04-01T12:44:29;20.40;53.50
28374;DHT22;15616;40.148;-102.718;2023-04-01T12:52:11;20.40;53.50
28374;DHT22;15616;40.148;-102.718;2023-04-01T13:05:13;20.40;53.50
28374;DHT22;15616;40.148;-102.718;2023-04-01T13:07:47;20.30;53.40
28374;DHT22;15616;40.148;-102.718;2023-04-01T13:10:27;20.30;53.40
28374;DHT22;15616;40.148;-102.718;2023-04-01T13:13:12;20.30;53.40
28374;DHT22;15616;40.148;-102.718;2023-04-01T13:28:52;20.40;53.50
28374;DHT22;15616;40.148;-102.718;2023-04-01T13:31:25;20.40;53.40
28374;DHT22;15616;40.148;-102.718;2023-04-01T13:43:58;20.30;53.30
28374;DHT22;15616;40.148;-102.718;2023-04-01T13:52:08;20.30;53.40
28374;DHT22;15616;40.148;-102.718;2023-04-01T13:57:33;20.30;53.40
28374;DHT22;15616;40.148;-102.718;2023-04-01T14:08:09;20.30;53.40
28374;DHT22;15616;40.148;-102.718;2023-04-01T14:16:47;20.30;53.50
28374;DHT22;15616;40.148;-102.718;2023-04-01T14:22:16;20.40;53.40
28374;DHT22;15616;40.148;-102.718;2023-04-01T14:34:29;20.30;53.40
28374;DHT22;15616;40.148;-102.718;2023-04-01T14:37:11;20.30;53.40
28374;DHT22;15616;40.148;-102.718;2023-04-01T14:39:47;20.40;53.40
28374;DHT22;15616;40.148;-102.718;2023-04-01T14:42:23;20.40;53.40
28374;DHT22;15616;40.148;-102.718;2023-04-01T14:47:53;20.40;53.40
28374;DHT22;15616;40.148;-102.718;2023-04-01T14:50:24;20.30;53.40
28374;DHT22;15616;40.148;-102.718;2023-04-01T14:58:27;20.30;53.40
28374;DHT22;15616;40.148;-102.718;2023-04-01T15:08:44;20.30;53.50
28374;DHT22;15616;40.148;-102.718;2023-04-01T15:11:31;20.30;53.50
28374;DHT22;15616;40.148;-102.718;2023-04-01T15:16:34;20.30;53.40
28374;DHT22;15616;40.148;-102.718;2023-04-01T15:21:55;20.30;53.50
28374;DHT22;15616;40.148;-102.718;2023-04-01T15:29:43;20.30;53.40
28374;DHT22;15616;40.148;-102.718;2023-04-01T15:45:11;20.30;53.40
28374;DHT22;15616;40.148;-102.718;2023-04-01T15:47:42;20.30;53.40
28374;DHT22;15616;40.148;-102.718;2023-04-01T16:03:36;20.30;53.40
28374;DHT22;15616;40.148;-102.718;2023-04-01T16:08:46;20.30;53.50
28374;DHT22;15616;40.148;-102.718;2023-04-01T16:16:41;20.30;53.50
28374;DHT22;15616;40.148;-102.718;2023-04-01T16:21:45;20.30;53.50
28374;DHT22;15616;40.148;-102.718;2023-04-01T16:24:15;20.30;53.50
28374;DHT22;15616;40.148;-102.718;2023-04-01T16:26:56;20.30;53.50
28374;DHT22;15616;40.148;-102.718;2023-04-01T16:29:32;20.30;53.40
28374;DHT22;15616;40.148;-102.718;2023-04-01T16:37:34;20.30;53.50
28374;DHT22;15616;40.148;-102.718;2023-04-01T16:42:44;20.30;53.50
28374;DHT22;15616;40.148;-102.718;2023-04-01T16:47:48;20.30;53.50
28374;DHT22;15616;40.148;-102.718;2023-04-01T16:50:22;20.40;53.40
28374;DHT22;15616;40.148;-102.718;2023-04-01T16:55:33;20.30;53.40
28374;DHT22;15616;40.148;-102.718;2023-04-01T16:57:59;20.30;53.40
28374;DHT22;15616;40.148;-102.718;2023-04-01T17:00:27;20.40;53.40
28374;DHT22;15616;40.148;-102.718;2023-04-01T17:02:58;20.40;53.40
28374;DHT22;15616;40.148;-102.718;2023-04-01T17:05:42;20.40;53.40
28374;DHT22;15616;40.148;-102.718;2023-04-01T17:10:44;20.40;53.40
28374;DHT22;15616;40.148;-102.718;2023-04-01T17:13:29;20.40;53.40
28374;DHT22;15616;40.148;-102.718;2023-04-01T17:18:32;20.40;53.30
28374;DHT22;15616;40.148;-102.718;2023-04-01T17:21:45;20.40;54.00
28374;DHT22;15616;40.148;-102.718;2023-04-01T17:23:51;20.40;53.30
28374;DHT22;15616;40.148;-102.718;2023-04-01T17:26:26;20.40;53.40
28374;DHT22;15616;40.148;-102.718;2023-04-01T17:39:19;20.30;53.40
28374;DHT22;15616;40.148;-102.718;2023-04-01T17:41:53;20.30;53.40
28374;DHT22;15616;40.148;-102.718;2023-04-01T17:50:04;20.40;53.40
28374;DHT22;15616;40.148;-102.718;2023-04-01T17:57:52;20.30;53.40
28374;DHT22;15616;40.148;-102.718;2023-04-01T18:00:29;20.30;53.40
28374;DHT22;15616;40.148;-102.718;2023-04-01T18:16:36;20.30;53.50
28374;DHT22;15616;40.148;-102.718;2023-04-01T18:18:57;20.30;53.50
28374;DHT22;15616;40.148;-102.718;2023-04-01T18:23:55;20.30;53.50
28374;DHT22;15616;40.148;-102.718;2023-04-01T18:26:22;20.20;53.50
28374;DHT22;15616;40.148;-102.718;2023-04-01T18:31:15;20.30;53.50
28374;DHT22;15616;40.148;-102.718;2023-04-01T18:34:18;20.30;53.50
28374;DHT22;15616;40.148;-102.718;2023-04-01T18:36:55;20.30;53.50
28374;DHT22;15616;40.148;-102.718;2023-04-01T18:39:22;20.30;53.50
28374;DHT22;15616;40.148;-102.718;2023-04-01T18:41:59;20.30;53.50
28374;DHT22;15616;40.148;-102.718;2023-04-01T18:47:25;20.30;53.50
28374;DHT22;15616;40.148;-102.718;2023-04-01T18:52:25;20.30;53.50
28374;DHT22;15616;40.148;-102.718;2023-04-01T18:57:41;20.30;53.50
28374;DHT22;15616;40.148;-102.718;2023-04-01T19:00:20;20.30;53.50
28374;DHT22;15616;40.148;-102.718;2023-04-01T19:02:54;20.20;53.50
28374;DHT22;15616;40.148;-102.718;2023-04-01T19:05:24;20.30;53.50
28374;DHT22;15616;40.148;-102.718;2023-04-01T19:07:52;20.30;53.50
28374;DHT22;15616;40.148;-102.718;2023-04-01T19:13:00;20.20;53.50
28374;DHT22;15616;40.148;-102.718;2023-04-01T19:20:26;20.20;53.50
28374;DHT22;15616;40.148;-102.718;2023-04-01T19:23:06;20.20;53.50
28374;DHT22;15616;40.148;-102.718;2023-04-01T19:28:06;20.30;53.50
28374;DHT22;15616;40.148;-102.718;2023-04-01T19:33:19;20.30;53.40
28374;DHT22;15616;40.148;-102.718;2023-04-01T19:38:19;20.30;53.40
28374;DHT22;15616;40.148;-102.718;2023-04-01T19:43:24;20.30;53.40
28374;DHT22;15616;40.148;-102.718;2023-04-01T19:46:03;20.30;53.40
28374;DHT22;15616;40.148;-102.718;2023-04-01T19:48:36;20.30;53.40
28374;DHT22;15616;40.148;-102.718;2023-04-01T19:56:22;20.30;53.40
28374;DHT22;15616;40.148;-102.718;2023-04-01T19:58:55;20.30;53.50
28374;DHT22;15616;40.148;-102.718;2023-04-01T20:01:27;20.30;53.40
28374;DHT22;15616;40.148;-102.718;2023-04-01T20:04:01;20.30;53.50
28374;DHT22;15616;40.148;-102.718;2023-04-01T20:14:05;20.30;53.50
28374;DHT22;15616;40.148;-102.718;2023-04-01T20:19:36;20.30;53.50
28374;DHT22;15616;40.148;-102.718;2023-04-01T20:22:04;20.30;53.50
28374;DHT22;15616;40.148;-102.718;2023-04-01T20:24:35;20.30;53.50
28374;DHT22;15616;40.148;-102.718;2023-04-01T20:29:39;20.20;53.50
28374;DHT22;15616;40.148;-102.718;2023-04-01T20:50:24;20.20;53.50
28374;DHT22;15616;40.148;-102.718;2023-04-01T20:52:57;20.20;53.50
28374;DHT22;15616;40.148;-102.718;2023-04-01T21:03:00;20.20;53.50
28374;DHT22;15616;40.148;-102.718;2023-04-01T21:10:34;20.20;53.50
28374;DHT22;15616;40.148;-102.718;2023-04-01T21:15:55;20.20;53.50
28374;DHT22;15616;40.148;-102.718;2023-04-01T21:21:16;20.20;53.60
28374;DHT22;15616;40.148;-102.718;2023-04-01T21:24:03;20.20;53.60
28374;DHT22;15616;40.148;-102.718;2023-04-01T21:26:39;20.20;53.60
28374;DHT22;15616;40.148;-102.718;2023-04-01T21:47:19;20.20;53.60
28374;DHT22;15616;40.148;-102.718;2023-04-01T22:00:38;20.20;53.60
28374;DHT22;15616;40.148;-102.718;2023-04-01T22:08:53;20.20;53.60
28374;DHT22;15616;40.148;-102.718;2023-04-01T22:16:20;20.10;53.70
28374;DHT22;15616;40.148;-102.718;2023-04-01T22:24:09;20.10;53.60
28374;DHT22;15616;40.148;-102.718;2023-04-01T22:26:44;20.20;53.70
28374;DHT22;15616;40.148;-102.718;2023-04-01T22:29:18;20.10;53.60
28374;DHT22;15616;40.148;-102.718;2023-04-01T22:39:28;20.10;53.70
28374;DHT22;15616;40.148;-102.718;2023-04-01T22:42:08;20.10;53.70
28374;DHT22;15616;40.148;-102.718;2023-04-01T22:44:45;20.10;53.70
28374;DHT22;15616;40.148;-102.718;2023-04-01T22:47:19;20.10;53.70
28374;DHT22;15616;40.148;-102.718;2023-04-01T22:49:50;20.10;53.70
28374;DHT22;15616;40.148;-102.718;2023-04-01T22:52:33;20.10;53.70
28374;DHT22;15616;40.148;-102.718;2023-04-01T22:55:10;20.10;53.70
28374;DHT22;15616;40.148;-102.718;2023-04-01T22:57:42;20.10;53.70
28374;DHT22;15616;40.148;-102.718;2023-04-01T23:00:17;20.10;53.70
28374;DHT22;15616;40.148;-102.718;2023-04-01T23:05:33;20.10;53.70
28374;DHT22;15616;40.148;-102.718;2023-04-01T23:10:32;20.10;53.70
28374;DHT22;15616;40.148;-102.718;2023-04-01T23:13:01;20.10;53.70
28374;DHT22;15616;40.148;-102.718;2023-04-01T23:15:27;20.10;53.70
28374;DHT22;15616;40.148;-102.718;2023-04-01T23:18:05;20.10;53.70
28374;DHT22;15616;40.148;-102.718;2023-04-01T23:28:22;20.10;53.70
28374;DHT22;15616;40.148;-102.718;2023-04-01T23:30:50;20.10;53.70
28374;DHT22;15616;40.148;-102.718;2023-04-01T23:35:49;20.00;53.70
28374;DHT22;15616;40.148;-102.718;2023-04-01T23:38:15;20.10;53.80
28374;DHT22;15616;40.148;-102.718;2023-04-01T23:40:41;20.10;53.80
28374;DHT22;15616;40.148;-102.718;2023-04-01T23:43:14;20.10;53.70
28374;DHT22;15616;40.148;-102.718;2023-04-01T23:45:41;20.10;53.80
28374;DHT22;15616;40.148;-102.718;2023-04-01T23:48:10;20.00;53.70
28374;DHT22;15616;40.148;-102.718;2023-04-01T23:50:36;20.00;53.70
28374;DHT22;15616;40.148;-102.718;2023-04-01T23:53:03;20.10;53.80
28374;DHT22;15616;40.148;-102.718;2023-04-01T23:55:32;20.00;53.70
